createdAt,value
2022-07-26T00:01:24.053Z,16.10
2022-07-26T00:03:56.119Z,16.40
2022-07-26T00:06:25.483Z,16.60
2022-07-26T00:08:54.203Z,16.80
2022-07-26T00:11:24.549Z,16.90
2022-07-26T00:13:53.182Z,17.10
2022-07-26T00:16:21.558Z,17.20
2022-07-26T00:18:49.684Z,17.30
2022-07-26T00:29:36.606Z,17.70
2022-07-26T00:32:05.475Z,17.70
2022-07-26T00:34:33.613Z,17.70
2022-07-26T00:37:03.157Z,17.60
2022-07-26T00:39:31.260Z,17.50
2022-07-26T00:42:00.730Z,17.30
2022-07-26T00:44:39.790Z,17.40
2022-07-26T00:47:08.419Z,17.50
2022-07-26T00:49:36.794Z,17.50
2022-07-26T00:52:07.074Z,17.40
2022-07-26T00:54:35.899Z,17.30
2022-07-26T00:57:06.138Z,17.20
2022-07-26T00:59:34.442Z,17.10
2022-07-26T01:02:03.209Z,17.00
2022-07-26T01:04:31.426Z,16.80
2022-07-26T01:06:59.947Z,16.60
2022-07-26T01:09:28.363Z,16.40
2022-07-26T01:11:57.162Z,16.40
2022-07-26T01:14:27.514Z,16.30
2022-07-26T01:16:55.770Z,16.30
2022-07-26T01:19:24.836Z,16.10
2022-07-26T01:21:54.275Z,16.10
2022-07-26T01:24:22.329Z,16.10
2022-07-26T01:26:50.470Z,16.00
2022-07-26T01:29:18.813Z,15.90
2022-07-26T01:31:46.987Z,16.00
2022-07-26T01:34:15.165Z,15.90
2022-07-26T01:36:44.415Z,15.80
2022-07-26T01:39:14.097Z,15.70
2022-07-26T01:41:42.267Z,15.60
2022-07-26T01:44:10.826Z,15.40
2022-07-26T01:46:39.332Z,15.40
2022-07-26T01:49:09.102Z,15.30
2022-07-26T01:51:37.286Z,15.20
2022-07-26T01:54:06.077Z,15.20
2022-07-26T01:56:35.883Z,15.30
2022-07-26T01:59:04.506Z,15.30
2022-07-26T02:01:37.889Z,15.20
2022-07-26T02:04:08.796Z,15.10
2022-07-26T02:06:37.543Z,15.00
2022-07-26T02:09:07.590Z,14.90
2022-07-26T02:11:40.143Z,14.90
2022-07-26T02:14:08.484Z,14.80
2022-07-26T02:16:37.009Z,14.80
2022-07-26T02:19:05.106Z,14.80
2022-07-26T02:21:33.494Z,14.80
2022-07-26T02:24:01.625Z,14.80
2022-07-26T02:26:29.828Z,14.80
2022-07-26T02:28:59.331Z,15.00
2022-07-26T02:31:32.091Z,14.80
2022-07-26T02:34:00.740Z,14.70
2022-07-26T02:36:28.925Z,14.60
2022-07-26T02:38:57.034Z,14.50
2022-07-26T02:41:25.302Z,14.40
2022-07-26T02:43:53.340Z,14.30
2022-07-26T02:46:22.898Z,14.20
2022-07-26T02:48:51.560Z,14.10
2022-07-26T02:51:19.628Z,14.00
2022-07-26T02:53:47.718Z,13.90
2022-07-26T02:56:15.807Z,13.80
2022-07-26T02:58:44.048Z,13.70
2022-07-26T03:01:12.663Z,13.70
2022-07-26T03:03:47.232Z,13.80
2022-07-26T03:06:18.940Z,14.00
2022-07-26T03:08:47.633Z,14.00
2022-07-26T03:11:16.213Z,14.10
2022-07-26T03:13:44.394Z,14.00
2022-07-26T03:16:12.610Z,13.90
2022-07-26T03:18:42.096Z,13.70
2022-07-26T03:21:10.253Z,13.60
2022-07-26T03:23:38.405Z,13.60
2022-07-26T03:26:07.078Z,13.60
2022-07-26T03:28:36.370Z,13.50
2022-07-26T03:31:04.939Z,13.50
2022-07-26T03:33:33.095Z,13.50
2022-07-26T03:36:02.658Z,13.50
2022-07-26T03:38:30.783Z,13.50
2022-07-26T03:40:59.052Z,13.50
2022-07-26T03:43:27.200Z,13.50
2022-07-26T03:45:55.401Z,13.60
2022-07-26T03:48:23.602Z,13.70
2022-07-26T03:50:51.729Z,13.70
2022-07-26T03:53:21.700Z,13.80
2022-07-26T03:56:07.264Z,13.80
2022-07-26T03:58:35.353Z,14.00
2022-07-26T04:01:03.512Z,14.20
2022-07-26T04:03:31.830Z,14.30
2022-07-26T04:06:00.004Z,14.50
2022-07-26T04:08:30.804Z,14.70
2022-07-26T04:10:59.303Z,14.80
2022-07-26T04:13:27.623Z,15.10
2022-07-26T04:15:55.732Z,15.30
2022-07-26T04:18:25.461Z,15.50
2022-07-26T04:20:53.581Z,15.60
2022-07-26T04:23:21.728Z,15.70
2022-07-26T04:25:51.406Z,15.90
2022-07-26T04:28:19.703Z,15.90
2022-07-26T04:30:48.313Z,16.10
2022-07-26T04:33:16.505Z,16.10
2022-07-26T04:35:44.610Z,16.10
2022-07-26T04:38:12.825Z,16.10
2022-07-26T04:40:41.208Z,16.20
2022-07-26T04:43:15.662Z,16.20
2022-07-26T04:45:44.821Z,16.40
2022-07-26T04:48:13.411Z,16.40
2022-07-26T04:50:43.672Z,16.50
2022-07-26T04:53:11.918Z,16.50
2022-07-26T04:55:40.359Z,16.60
2022-07-26T04:58:10.636Z,16.60
2022-07-26T05:03:28.094Z,16.90
2022-07-26T05:05:56.261Z,16.80
2022-07-26T05:08:24.413Z,16.90
2022-07-26T05:10:55.502Z,16.90
2022-07-26T05:13:30.725Z,16.90
2022-07-26T05:15:59.393Z,16.90
2022-07-26T05:18:30.001Z,16.90
2022-07-26T05:21:00.178Z,16.90
2022-07-26T05:23:28.317Z,16.90
2022-07-26T05:25:56.647Z,16.90
2022-07-26T05:28:26.119Z,16.90
2022-07-26T05:30:54.547Z,17.00
2022-07-26T05:33:22.936Z,17.10
2022-07-26T05:35:51.002Z,17.20
2022-07-26T05:38:19.108Z,17.20
2022-07-26T05:40:50.665Z,17.30
2022-07-26T05:43:19.226Z,17.30
2022-07-26T05:45:48.753Z,17.40
2022-07-26T05:48:16.918Z,17.50
2022-07-26T05:50:45.833Z,17.60
2022-07-26T05:53:13.964Z,17.60
2022-07-26T05:55:42.276Z,17.80
2022-07-26T05:58:10.354Z,17.80
2022-07-26T06:00:38.520Z,17.90
2022-07-26T06:03:21.901Z,17.80
2022-07-26T06:05:50.334Z,17.80
2022-07-26T06:08:19.430Z,17.90
2022-07-26T06:10:48.922Z,18.20
2022-07-26T06:13:17.978Z,18.30
2022-07-26T06:15:46.290Z,18.40
2022-07-26T06:18:16.199Z,18.60
2022-07-26T06:20:47.174Z,18.70
2022-07-26T06:23:16.035Z,18.80
2022-07-26T06:25:44.171Z,19.00
2022-07-26T06:28:12.920Z,19.00
2022-07-26T06:30:41.429Z,19.10
2022-07-26T06:33:09.725Z,19.40
2022-07-26T06:35:39.926Z,19.50
2022-07-26T06:38:08.826Z,19.60
2022-07-26T06:40:37.212Z,19.70
2022-07-26T06:43:05.614Z,20.00
2022-07-26T06:45:34.265Z,20.00
2022-07-26T06:48:02.487Z,19.90
2022-07-26T06:50:31.018Z,19.70
2022-07-26T06:53:00.538Z,19.60
2022-07-26T06:55:28.609Z,19.50
2022-07-26T06:57:56.705Z,19.40
2022-07-26T07:00:24.877Z,19.40
2022-07-26T07:02:53.069Z,19.60
2022-07-26T07:05:21.467Z,19.80
2022-07-26T07:07:49.590Z,20.00
2022-07-26T07:10:19.354Z,20.20
2022-07-26T07:12:51.904Z,20.30
2022-07-26T07:15:20.163Z,20.20
2022-07-26T07:17:48.392Z,20.30
2022-07-26T07:20:16.508Z,20.40
2022-07-26T07:22:44.583Z,20.60
2022-07-26T07:25:14.686Z,20.70
2022-07-26T07:27:44.441Z,20.60
2022-07-26T07:30:13.865Z,20.50
2022-07-26T07:32:42.731Z,20.50
2022-07-26T07:35:13.223Z,20.90
2022-07-26T07:37:52.837Z,21.30
2022-07-26T07:40:23.244Z,22.20
2022-07-26T07:42:53.023Z,22.90
2022-07-26T07:45:21.416Z,22.80
2022-07-26T07:47:49.595Z,23.00
2022-07-26T07:50:18.207Z,23.20
2022-07-26T07:52:46.483Z,23.20
2022-07-26T07:55:36.391Z,23.10
2022-07-26T07:58:05.406Z,23.20
2022-07-26T08:00:34.174Z,23.00
2022-07-26T08:03:02.362Z,23.40
2022-07-26T08:05:30.627Z,23.50
2022-07-26T08:07:58.943Z,24.70
2022-07-26T08:10:27.272Z,24.80
2022-07-26T08:12:55.348Z,25.20
2022-07-26T08:15:26.850Z,26.50
2022-07-26T08:17:55.319Z,26.30
2022-07-26T08:20:25.182Z,25.80
2022-07-26T08:22:53.758Z,26.50
2022-07-26T08:25:22.450Z,26.80
2022-07-26T08:28:03.201Z,26.70
2022-07-26T08:30:34.585Z,27.40
2022-07-26T08:33:02.683Z,27.30
2022-07-26T08:35:30.794Z,26.60
2022-07-26T08:37:59.450Z,25.50
2022-07-26T08:40:27.829Z,26.40
2022-07-26T08:42:58.454Z,27.70
2022-07-26T08:45:28.897Z,27.00
2022-07-26T08:50:49.323Z,25.10
2022-07-26T08:53:17.524Z,24.90
2022-07-26T08:56:06.027Z,25.80
2022-07-26T08:58:36.151Z,25.90
2022-07-26T09:01:07.536Z,25.40
2022-07-26T09:03:38.651Z,26.10
2022-07-26T09:06:18.696Z,27.50
2022-07-26T09:08:50.018Z,27.30
2022-07-26T09:11:30.665Z,27.20
2022-07-26T09:14:01.792Z,27.80
2022-07-26T09:16:32.552Z,27.90
2022-07-26T09:19:21.395Z,29.20
2022-07-26T09:21:50.557Z,30.70
2022-07-26T09:24:33.518Z,32.10
2022-07-26T09:27:04.426Z,30.70
2022-07-26T09:29:43.979Z,30.20
2022-07-26T09:32:17.987Z,31.30
2022-07-26T09:34:53.182Z,32.10
2022-07-26T09:37:36.045Z,30.90
2022-07-26T09:40:08.918Z,30.20
2022-07-26T09:42:37.641Z,31.20
2022-07-26T09:45:17.707Z,32.40
2022-07-26T09:47:45.793Z,33.90
2022-07-26T09:50:18.938Z,33.60
2022-07-26T09:53:02.321Z,32.50
2022-07-26T09:55:41.004Z,30.90
2022-07-26T09:58:14.908Z,30.50
2022-07-26T10:00:43.874Z,29.90
2022-07-26T10:03:12.699Z,30.20
2022-07-26T10:05:43.530Z,31.80
2022-07-26T10:08:13.583Z,32.60
2022-07-26T10:10:47.608Z,32.70
2022-07-26T10:13:16.415Z,32.00
2022-07-26T10:15:47.355Z,30.00
2022-07-26T10:18:47.337Z,28.40
2022-07-26T10:21:27.969Z,29.40
2022-07-26T10:23:58.038Z,31.90
2022-07-26T10:26:43.315Z,34.10
2022-07-26T10:29:26.443Z,34.30
2022-07-26T10:32:20.659Z,33.50
2022-07-26T10:34:49.314Z,32.10
2022-07-26T10:37:29.649Z,29.70
2022-07-26T10:40:22.654Z,27.60
2022-07-26T10:42:51.018Z,25.90
2022-07-26T10:45:24.084Z,25.10
2022-07-26T10:48:14.237Z,24.70
2022-07-26T10:50:45.101Z,24.50
2022-07-26T10:53:21.973Z,24.50
2022-07-26T10:55:52.803Z,24.40
2022-07-26T10:58:22.112Z,24.50
2022-07-26T11:00:59.902Z,24.70
2022-07-26T11:03:38.945Z,25.10
2022-07-26T11:06:13.764Z,25.30
2022-07-26T11:08:47.883Z,25.50
2022-07-26T11:11:30.711Z,25.90
2022-07-26T11:14:08.337Z,26.50
2022-07-26T11:16:41.961Z,27.60
2022-07-26T11:19:18.829Z,28.80
2022-07-26T11:21:56.213Z,29.70
2022-07-26T11:24:26.734Z,31.20
2022-07-26T11:26:55.603Z,30.60
2022-07-26T11:29:40.601Z,29.80
2022-07-26T11:32:19.502Z,29.00
2022-07-26T11:34:48.825Z,28.70
2022-07-26T11:37:16.916Z,28.30
2022-07-26T11:39:48.505Z,28.00
2022-07-26T11:42:19.565Z,27.60
2022-07-26T11:44:50.344Z,27.30
2022-07-26T11:47:21.182Z,26.90
2022-07-26T11:50:22.277Z,26.70
2022-07-26T11:52:43.076Z,26.30
2022-07-26T11:55:12.702Z,26.20
2022-07-26T11:57:40.802Z,25.80
2022-07-26T12:00:10.844Z,25.40
2022-07-26T12:02:39.039Z,25.00
2022-07-26T12:05:16.878Z,24.70
2022-07-26T12:07:59.780Z,24.60
2022-07-26T12:10:30.112Z,24.60
2022-07-26T12:13:13.797Z,24.90
2022-07-26T12:15:50.377Z,25.20
2022-07-26T12:18:27.460Z,25.40
2022-07-26T12:21:07.572Z,25.90
2022-07-26T12:23:44.753Z,27.40
2022-07-26T12:26:26.446Z,29.40
2022-07-26T12:28:56.154Z,29.10
2022-07-26T12:31:29.899Z,28.90
2022-07-26T12:33:58.263Z,28.40
2022-07-26T12:36:29.891Z,27.90
2022-07-26T12:38:59.958Z,27.90
2022-07-26T12:41:38.707Z,27.70
2022-07-26T12:44:11.586Z,27.90
2022-07-26T12:46:40.425Z,28.20
2022-07-26T12:49:08.720Z,28.30
2022-07-26T12:51:36.870Z,28.20
2022-07-26T12:54:06.481Z,28.40
2022-07-26T12:56:36.148Z,28.60
2022-07-26T12:59:04.342Z,28.80
2022-07-26T13:01:33.894Z,28.80
2022-07-26T13:04:02.589Z,29.00
2022-07-26T13:06:32.738Z,29.40
2022-07-26T13:09:00.953Z,29.50
2022-07-26T13:11:29.193Z,29.40
2022-07-26T13:13:58.919Z,29.20
2022-07-26T13:16:27.025Z,28.90
2022-07-26T13:18:55.144Z,28.60
2022-07-26T13:21:23.299Z,28.60
2022-07-26T13:23:51.421Z,28.70
2022-07-26T13:26:19.714Z,29.20
2022-07-26T13:28:50.171Z,29.30
2022-07-26T13:31:19.777Z,29.20
2022-07-26T13:33:47.949Z,29.20
2022-07-26T13:36:15.996Z,29.20
2022-07-26T13:38:44.175Z,29.30
2022-07-26T13:41:12.382Z,29.60
2022-07-26T13:43:40.625Z,29.90
2022-07-26T13:46:08.877Z,29.60
2022-07-26T13:48:48.082Z,29.60
2022-07-26T13:51:48.296Z,29.40
2022-07-26T13:54:19.444Z,29.50
2022-07-26T13:56:48.935Z,31.20
2022-07-26T13:59:17.754Z,31.30
2022-07-26T14:01:46.221Z,30.80
2022-07-26T14:04:16.533Z,30.60
2022-07-26T14:06:45.241Z,30.30
2022-07-26T14:09:15.072Z,29.70
2022-07-26T14:11:43.900Z,29.20
2022-07-26T14:14:12.828Z,29.00
2022-07-26T14:16:41.744Z,28.90
2022-07-26T14:19:10.283Z,29.10
2022-07-26T14:21:47.216Z,29.80
2022-07-26T14:24:27.169Z,30.00
2022-07-26T14:26:58.772Z,29.90
2022-07-26T14:29:28.345Z,29.50
2022-07-26T14:31:56.562Z,29.50
2022-07-26T14:34:24.798Z,30.90
2022-07-26T14:36:54.224Z,32.60
2022-07-26T14:39:24.458Z,33.40
2022-07-26T14:41:52.592Z,34.40
2022-07-26T14:44:20.760Z,33.90
2022-07-26T14:46:48.881Z,33.00
2022-07-26T14:49:17.104Z,31.30
2022-07-26T14:51:45.600Z,30.40
2022-07-26T14:54:18.200Z,29.50
2022-07-26T14:56:46.366Z,28.60
2022-07-26T14:59:14.490Z,28.10
2022-07-26T15:01:42.709Z,27.70
2022-07-26T15:04:11.171Z,27.50
2022-07-26T15:06:39.713Z,27.40
2022-07-26T15:09:07.825Z,27.20
2022-07-26T15:11:37.347Z,26.80
2022-07-26T15:14:07.333Z,26.70
2022-07-26T15:16:35.783Z,26.60
2022-07-26T15:19:04.451Z,26.60
2022-07-26T15:21:32.774Z,26.80
2022-07-26T15:24:01.056Z,26.70
2022-07-26T15:26:29.155Z,26.80
2022-07-26T15:28:58.760Z,26.80
2022-07-26T15:31:37.554Z,26.90
2022-07-26T15:34:09.583Z,27.10
2022-07-26T15:36:38.333Z,27.30
2022-07-26T15:39:16.977Z,27.40
2022-07-26T15:41:46.541Z,27.60
2022-07-26T15:44:17.852Z,27.70
2022-07-26T15:46:48.134Z,27.60
2022-07-26T15:49:18.627Z,27.50
2022-07-26T15:51:46.950Z,27.70
2022-07-26T15:54:16.318Z,27.70
2022-07-26T15:56:44.844Z,27.50
2022-07-26T15:59:13.080Z,27.70
2022-07-26T16:01:42.718Z,27.80
2022-07-26T16:04:11.332Z,27.50
2022-07-26T16:06:39.825Z,27.20
2022-07-26T16:09:23.169Z,26.90
2022-07-26T16:11:51.680Z,26.60
2022-07-26T16:14:19.864Z,26.70
2022-07-26T16:16:49.487Z,26.70
2022-07-26T16:19:18.259Z,26.70
2022-07-26T16:21:46.455Z,27.10
2022-07-26T16:24:14.489Z,27.40
2022-07-26T16:26:43.785Z,27.70
2022-07-26T16:29:12.617Z,27.70
2022-07-26T16:31:42.472Z,26.90
2022-07-26T16:34:12.813Z,26.00
2022-07-26T16:36:41.404Z,25.40
2022-07-26T16:39:12.752Z,25.00
2022-07-26T16:41:41.356Z,24.80
2022-07-26T16:44:09.616Z,24.70
2022-07-26T16:46:37.824Z,24.70
2022-07-26T16:49:06.325Z,24.60
2022-07-26T16:51:36.171Z,24.40
2022-07-26T16:54:04.479Z,24.40
2022-07-26T16:56:32.987Z,24.40
2022-07-26T16:59:01.335Z,24.50
2022-07-26T17:01:29.683Z,24.50
2022-07-26T17:03:57.896Z,24.50
2022-07-26T17:06:26.032Z,24.50
2022-07-26T17:08:55.519Z,24.50
2022-07-26T17:11:23.626Z,24.30
2022-07-26T17:13:53.461Z,24.20
2022-07-26T17:16:24.707Z,24.10
2022-07-26T17:18:53.772Z,24.00
2022-07-26T17:21:22.577Z,24.10
2022-07-26T17:23:50.820Z,24.10
2022-07-26T17:26:21.108Z,24.10
2022-07-26T17:28:49.485Z,24.10
2022-07-26T17:31:19.116Z,24.20
2022-07-26T17:33:47.225Z,24.30
2022-07-26T17:36:25.732Z,24.40
2022-07-26T17:38:54.920Z,24.50
2022-07-26T17:41:32.662Z,24.60
2022-07-26T17:44:03.319Z,24.50
2022-07-26T17:46:33.384Z,24.40
2022-07-26T17:49:01.863Z,24.30
2022-07-26T17:51:30.076Z,24.20
2022-07-26T17:53:58.624Z,24.30
2022-07-26T17:56:28.662Z,24.50
2022-07-26T17:58:56.788Z,24.70
2022-07-26T18:01:25.620Z,24.70
2022-07-26T18:03:53.778Z,24.40
2022-07-26T18:06:22.059Z,24.10
2022-07-26T18:08:50.554Z,23.70
2022-07-26T18:11:20.284Z,23.40
2022-07-26T18:13:49.943Z,23.20
2022-07-26T18:16:18.788Z,23.10
2022-07-26T18:18:46.947Z,23.10
2022-07-26T18:21:15.146Z,23.10
2022-07-26T18:24:00.601Z,22.90
2022-07-26T18:26:32.012Z,22.70
2022-07-26T18:29:01.607Z,22.40
2022-07-26T18:31:29.922Z,22.20
2022-07-26T18:34:00.802Z,22.10
2022-07-26T18:36:32.752Z,21.90
2022-07-26T18:39:00.929Z,21.80
2022-07-26T18:41:30.443Z,21.60
2022-07-26T18:44:02.234Z,21.50
2022-07-26T18:46:30.494Z,21.50
2022-07-26T18:48:59.240Z,21.50
2022-07-26T18:51:27.968Z,21.40
2022-07-26T18:53:56.535Z,21.30
2022-07-26T18:56:24.783Z,21.20
2022-07-26T18:58:52.993Z,21.20
2022-07-26T19:01:22.501Z,21.10
2022-07-26T19:03:50.661Z,21.10
2022-07-26T19:06:18.930Z,21.10
2022-07-26T19:08:47.149Z,21.00
2022-07-26T19:11:15.335Z,20.90
2022-07-26T19:13:43.545Z,20.80
2022-07-26T19:16:11.766Z,20.70
2022-07-26T19:18:42.515Z,20.70
2022-07-26T19:21:16.574Z,20.60
2022-07-26T19:23:44.859Z,20.60
2022-07-26T19:26:12.974Z,20.40
2022-07-26T19:28:41.332Z,20.40
2022-07-26T19:31:09.513Z,20.20
2022-07-26T19:33:37.763Z,20.20
2022-07-26T19:36:07.988Z,20.10
2022-07-26T19:38:36.498Z,20.10
2022-07-26T19:41:04.605Z,20.00
2022-07-26T19:43:32.759Z,19.90
2022-07-26T19:46:02.036Z,19.70
2022-07-26T19:48:30.354Z,19.60
2022-07-26T19:50:58.771Z,19.40
2022-07-26T19:53:28.266Z,19.40
2022-07-26T19:55:56.369Z,19.20
2022-07-26T19:58:26.204Z,19.00
2022-07-26T20:00:55.289Z,18.80
2022-07-26T20:03:23.421Z,18.80
2022-07-26T20:05:53.628Z,18.80
2022-07-26T20:08:22.238Z,18.70
2022-07-26T20:10:52.336Z,18.60
2022-07-26T20:13:20.507Z,18.40
2022-07-26T20:15:48.691Z,18.30
2022-07-26T20:18:18.366Z,18.10
2022-07-26T20:20:46.521Z,18.00
2022-07-26T20:23:14.980Z,17.90
2022-07-26T20:25:43.313Z,17.80
2022-07-26T20:28:12.811Z,17.70
2022-07-26T20:30:41.047Z,17.60
2022-07-26T20:33:09.505Z,17.60
2022-07-26T20:35:37.796Z,17.50
2022-07-26T20:38:05.845Z,17.30
2022-07-26T20:40:34.033Z,17.30
2022-07-26T20:43:02.222Z,17.20
2022-07-26T20:45:31.700Z,17.20
2022-07-26T20:47:59.842Z,17.00
2022-07-26T20:50:28.216Z,16.90
2022-07-26T20:52:56.469Z,16.70
2022-07-26T20:55:24.605Z,16.70
2022-07-26T20:57:52.914Z,16.70
2022-07-26T21:00:21.349Z,16.70
2022-07-26T21:02:53.592Z,16.60
2022-07-26T21:05:22.342Z,16.50
2022-07-26T21:07:58.297Z,16.40
2022-07-26T21:10:29.140Z,16.30
2022-07-26T21:13:00.280Z,16.30
2022-07-26T21:15:28.741Z,16.30
2022-07-26T21:17:58.821Z,16.30
2022-07-26T21:20:27.025Z,16.40
2022-07-26T21:23:08.000Z,16.50
2022-07-26T21:25:41.335Z,16.90
2022-07-26T21:28:09.421Z,17.00
2022-07-26T21:30:37.688Z,17.10
2022-07-26T21:33:07.939Z,16.80
2022-07-26T21:35:36.116Z,16.90
2022-07-26T21:38:04.331Z,17.00
2022-07-26T21:40:32.782Z,16.90
2022-07-26T21:43:01.306Z,16.90
2022-07-26T21:45:29.542Z,17.00
2022-07-26T21:47:57.770Z,17.00
2022-07-26T21:50:27.939Z,17.10
2022-07-26T21:52:56.141Z,17.10
2022-07-26T21:55:24.322Z,17.10
2022-07-26T21:57:52.491Z,17.10
2022-07-26T22:00:21.037Z,16.90
2022-07-26T22:02:49.289Z,16.80
2022-07-26T22:05:34.792Z,16.80
2022-07-26T22:08:05.956Z,16.90
2022-07-26T22:10:35.394Z,16.80
2022-07-26T22:13:13.763Z,16.90
2022-07-26T22:15:42.938Z,16.90
2022-07-26T22:18:11.396Z,16.90
2022-07-26T22:20:40.084Z,17.00
2022-07-26T22:23:12.943Z,16.90
2022-07-26T22:25:42.173Z,16.90
2022-07-26T22:28:17.768Z,16.90
2022-07-26T22:30:47.242Z,16.90
2022-07-26T22:33:15.901Z,16.90
2022-07-26T22:35:44.212Z,16.70
2022-07-26T22:38:14.365Z,16.50
2022-07-26T22:40:44.308Z,16.50
2022-07-26T22:43:14.581Z,16.60
2022-07-26T22:45:43.517Z,16.50
2022-07-26T22:48:11.811Z,16.40
2022-07-26T22:50:40.197Z,16.40
2022-07-26T22:53:08.537Z,16.40
2022-07-26T22:55:38.392Z,16.30
2022-07-26T22:58:06.526Z,16.30
2022-07-26T23:00:34.825Z,16.20
2022-07-26T23:03:03.097Z,16.00
2022-07-26T23:05:46.167Z,16.00
2022-07-26T23:11:06.656Z,16.10
2022-07-26T23:13:35.247Z,16.20
2022-07-26T23:16:03.485Z,16.20
2022-07-26T23:18:32.646Z,16.30
2022-07-26T23:21:02.278Z,16.40
2022-07-26T23:23:32.223Z,16.40
2022-07-26T23:26:01.011Z,16.40
2022-07-26T23:28:36.815Z,16.40
2022-07-26T23:31:08.983Z,16.50
2022-07-26T23:33:52.017Z,16.50
2022-07-26T23:36:26.979Z,16.60
2022-07-26T23:38:55.724Z,16.50
2022-07-26T23:41:24.312Z,16.50
2022-07-26T23:43:55.081Z,16.60
2022-07-26T23:46:24.324Z,16.60
2022-07-26T23:48:53.645Z,16.60
2022-07-26T23:51:23.031Z,16.60
2022-07-26T23:53:52.191Z,16.60
2022-07-26T23:56:20.591Z,16.60
2022-07-26T23:58:49.078Z,16.60
